Time;durP1;ratioP1;P1;durP2;ratioP2;P2;SDS_P1;SDS_P2;PMS_P1;PMS_P2;Temp;Humidity;BMP_temperature;BMP_pressure;BME280_temperature;BME280_humidity;BME280_pressure;Samples;Min_cycle;Max_cycle;Signal;HPM_P1;HPM_P2
2024/02/20 00:02:18;;;;;;;2.37;2.27;;;;;;;;;;5027454;28;20573;-85
2024/02/20 00:04:45;;;;;;;1.93;1.90;;;;;;;;;;5019554;28;20459;-85
2024/02/20 00:07:11;;;;;;;2.17;2.07;;;;;;;;;;5019015;28;20979;-83
2024/02/20 00:09:38;;;;;;;2.20;2.10;;;;;;;;;;5017968;28;20489;-83
2024/02/20 00:12:06;;;;;;;2.40;2.30;;;;;;;;;;5022689;28;20554;-84
2024/02/20 00:14:32;;;;;;;1.47;1.47;;;;;;;;;;5023972;28;20455;-84
2024/02/20 00:16:59;;;;;;;1.50;1.50;;;;;;;;;;5021915;28;20495;-83
2024/02/20 00:19:25;;;;;;;1.87;1.87;;;;;;;;;;5028097;28;20494;-84
2024/02/20 00:21:51;;;;;;;1.60;1.60;;;;;;;;;;5024813;28;20537;-84
2024/02/20 00:24:18;;;;;;;2.50;2.40;;;;;;;;;;5009492;28;20527;-83
2024/02/20 00:26:44;;;;;;;2.60;2.50;;;;;;;;;;5026301;28;20454;-83
2024/02/20 00:29:12;;;;;;;2.40;2.30;;;;;;;;;;5025296;28;20525;-83
2024/02/20 00:31:38;;;;;;;2.90;2.80;;;;;;;;;;5029409;28;20490;-83
2024/02/20 00:34:05;;;;;;;2.97;2.87;;;;;;;;;;5022770;28;20566;-82
2024/02/20 00:36:31;;;;;;;2.90;2.80;;;;;;;;;;5025770;28;20886;-83
2024/02/20 00:38:58;;;;;;;3.00;2.90;;;;;;;;;;5022769;28;20525;-84
2024/02/20 00:41:26;;;;;;;4.03;3.83;;;;;;;;;;5025301;28;20585;-84
2024/02/20 00:43:52;;;;;;;2.80;2.70;;;;;;;;;;5026284;28;20490;-83
2024/02/20 00:46:20;;;;;;;2.80;2.70;;;;;;;;;;5026934;28;20611;-83
2024/02/20 00:48:47;;;;;;;2.73;2.63;;;;;;;;;;5021949;28;20494;-81
2024/02/20 00:51:16;;;;;;;3.07;2.97;;;;;;;;;;5023747;28;20463;-84
2024/02/20 00:53:43;;;;;;;2.93;2.83;;;;;;;;;;5020426;28;20461;-84
2024/02/20 00:56:09;;;;;;;3.00;2.90;;;;;;;;;;5016000;28;20488;-84
2024/02/20 00:58:35;;;;;;;2.90;2.80;;;;;;;;;;5021779;28;20608;-84
2024/02/20 01:01:02;;;;;;;2.73;2.63;;;;;;;;;;5024690;28;20474;-83
2024/02/20 01:03:30;;;;;;;3.03;2.93;;;;;;;;;;5027249;28;20556;-83
2024/02/20 01:05:56;;;;;;;2.80;2.70;;;;;;;;;;5022534;28;20457;-83
2024/02/20 01:08:22;;;;;;;2.57;2.47;;;;;;;;;;5018540;28;20492;-84
2024/02/20 01:10:49;;;;;;;2.80;2.70;;;;;;;;;;5017240;28;20482;-83
2024/02/20 01:13:15;;;;;;;2.87;2.77;;;;;;;;;;5017963;28;20463;-83
2024/02/20 01:15:42;;;;;;;2.80;2.70;;;;;;;;;;5024363;28;20549;-83
2024/02/20 01:18:08;;;;;;;3.27;3.17;;;;;;;;;;5015558;28;20522;-83
2024/02/20 01:20:36;;;;;;;3.20;3.10;;;;;;;;;;5029429;28;20522;-83
2024/02/20 01:23:02;;;;;;;2.83;2.73;;;;;;;;;;5026541;28;20524;-83
2024/02/20 01:25:29;;;;;;;2.83;2.73;;;;;;;;;;5023963;28;20473;-84
2024/02/20 01:27:55;;;;;;;3.00;2.90;;;;;;;;;;5023549;28;20496;-84
2024/02/20 01:30:21;;;;;;;2.50;2.40;;;;;;;;;;5029206;28;20471;-84
2024/02/20 01:32:48;;;;;;;2.63;2.53;;;;;;;;;;5024403;28;20466;-83
2024/02/20 01:35:15;;;;;;;2.80;2.70;;;;;;;;;;5023721;28;20457;-83
2024/02/20 01:37:42;;;;;;;2.60;2.50;;;;;;;;;;5022795;28;20482;-84
2024/02/20 01:40:09;;;;;;;2.43;2.33;;;;;;;;;;5021586;28;20516;-83
2024/02/20 01:42:37;;;;;;;2.40;2.30;;;;;;;;;;5020117;28;20587;-84
2024/02/20 01:45:03;;;;;;;2.30;2.20;;;;;;;;;;5022050;28;20501;-84
2024/02/20 01:47:30;;;;;;;7.10;5.83;;;;;;;;;;5026376;28;20488;-84
2024/02/20 01:49:57;;;;;;;2.20;2.10;;;;;;;;;;5020766;28;20467;-83
2024/02/20 01:52:24;;;;;;;2.20;2.10;;;;;;;;;;5023737;28;20481;-84
2024/02/20 01:54:52;;;;;;;2.10;2.00;;;;;;;;;;5022498;28;20493;-84
2024/02/20 01:57:18;;;;;;;2.10;2.00;;;;;;;;;;5024610;28;20476;-82
2024/02/20 01:59:45;;;;;;;2.10;2.00;;;;;;;;;;5025010;28;20800;-83
2024/02/20 02:02:12;;;;;;;2.33;2.23;;;;;;;;;;5026789;28;20486;-84
2024/02/20 02:04:38;;;;;;;1.60;1.60;;;;;;;;;;5024329;28;20572;-84
2024/02/20 02:07:05;;;;;;;1.93;1.83;;;;;;;;;;5014698;28;20526;-83
2024/02/20 02:09:31;;;;;;;2.10;2.00;;;;;;;;;;5029041;28;20490;-85
2024/02/20 02:11:59;;;;;;;10.67;10.10;;;;;;;;;;5035835;28;20503;-84
2024/02/20 02:14:25;;;;;;;2.30;2.20;;;;;;;;;;5023777;28;20530;-84
2024/02/20 02:16:51;;;;;;;2.10;2.00;;;;;;;;;;5023468;28;21096;-84
2024/02/20 02:19:18;;;;;;;2.30;2.20;;;;;;;;;;5035537;28;20482;-83
2024/02/20 02:21:45;;;;;;;1.90;1.90;;;;;;;;;;5030450;28;20615;-84
2024/02/20 02:24:11;;;;;;;2.30;2.20;;;;;;;;;;5013039;28;20502;-83
2024/02/20 02:26:39;;;;;;;2.07;1.97;;;;;;;;;;5023243;28;20441;-84
2024/02/20 02:29:05;;;;;;;2.10;2.00;;;;;;;;;;5029114;28;20563;-85
2024/02/20 02:31:32;;;;;;;1.87;1.87;;;;;;;;;;5027117;28;20492;-85
2024/02/20 02:33:58;;;;;;;2.20;2.10;;;;;;;;;;5024992;28;20518;-84
2024/02/20 02:36:25;;;;;;;2.30;2.20;;;;;;;;;;5024280;28;20485;-84
2024/02/20 02:38:51;;;;;;;2.20;2.10;;;;;;;;;;5026103;28;20449;-84
2024/02/20 02:41:18;;;;;;;3.73;3.57;;;;;;;;;;5020036;28;20513;-84
2024/02/20 02:43:46;;;;;;;2.50;2.40;;;;;;;;;;5026510;28;20489;-83
2024/02/20 02:46:13;;;;;;;2.10;2.00;;;;;;;;;;5025813;28;20505;-84
2024/02/20 02:48:39;;;;;;;2.80;2.70;;;;;;;;;;5022822;28;20469;-84
2024/02/20 02:51:08;;;;;;;2.40;2.30;;;;;;;;;;5027882;28;21006;-85
2024/02/20 02:53:34;;;;;;;2.50;2.40;;;;;;;;;;5029323;28;20545;-85
2024/02/20 02:56:01;;;;;;;2.47;2.37;;;;;;;;;;5022585;28;20584;-84
2024/02/20 02:58:27;;;;;;;2.87;2.77;;;;;;;;;;5019034;28;20463;-84
2024/02/20 03:00:55;;;;;;;3.17;3.07;;;;;;;;;;5026158;28;20494;-84
2024/02/20 03:03:21;;;;;;;3.10;3.00;;;;;;;;;;5024511;28;20538;-84
2024/02/20 03:05:48;;;;;;;2.90;2.80;;;;;;;;;;5021750;28;20585;-84
2024/02/20 03:08:14;;;;;;;3.00;2.90;;;;;;;;;;5029410;28;20537;-84
2024/02/20 03:10:40;;;;;;;3.07;2.97;;;;;;;;;;5027084;28;20454;-84
2024/02/20 03:13:07;;;;;;;2.77;2.67;;;;;;;;;;5025186;28;20486;-83
2024/02/20 03:15:33;;;;;;;3.03;2.93;;;;;;;;;;5018414;28;21304;-84
2024/02/20 03:18:01;;;;;;;3.10;3.00;;;;;;;;;;5022973;28;20438;-84
2024/02/20 03:20:29;;;;;;;2.57;2.47;;;;;;;;;;5029368;28;20574;-83
2024/02/20 03:22:56;;;;;;;2.90;2.80;;;;;;;;;;5023577;28;20454;-84
2024/02/20 03:25:22;;;;;;;2.90;2.80;;;;;;;;;;5030416;28;20511;-84
2024/02/20 03:27:49;;;;;;;2.60;2.50;;;;;;;;;;5022058;28;20454;-84
2024/02/20 03:30:16;;;;;;;2.53;2.43;;;;;;;;;;5022202;28;20448;-84
2024/02/20 03:32:43;;;;;;;2.50;2.40;;;;;;;;;;5031100;28;20487;-84
2024/02/20 03:35:20;;;;;;;2.23;2.13;;;;;;;;;;5028425;28;20517;-84
2024/02/20 03:37:47;;;;;;;2.17;2.07;;;;;;;;;;5023821;28;20470;-84
2024/02/20 03:40:14;;;;;;;2.37;2.27;;;;;;;;;;5028110;28;20466;-84
2024/02/20 03:42:41;;;;;;;2.60;2.50;;;;;;;;;;5023333;28;20518;-83
2024/02/20 03:45:10;;;;;;;2.53;2.43;;;;;;;;;;5020895;28;20489;-82
2024/02/20 03:47:36;;;;;;;2.50;2.40;;;;;;;;;;5028906;28;20493;-84
2024/02/20 03:50:04;;;;;;;2.87;2.77;;;;;;;;;;5022582;28;20489;-84
2024/02/20 03:52:31;;;;;;;2.67;2.57;;;;;;;;;;5022848;28;20455;-84
2024/02/20 03:54:58;;;;;;;2.80;2.70;;;;;;;;;;5021963;28;21060;-85
2024/02/20 03:57:24;;;;;;;2.83;2.73;;;;;;;;;;5022969;28;20479;-84
2024/02/20 03:59:51;;;;;;;2.57;2.47;;;;;;;;;;5014467;28;20825;-84
2024/02/20 04:02:17;;;;;;;2.70;2.60;;;;;;;;;;5021553;28;20479;-84
2024/02/20 04:04:44;;;;;;;2.80;2.70;;;;;;;;;;5020946;28;20478;-84
2024/02/20 04:07:11;;;;;;;2.80;2.70;;;;;;;;;;5019878;28;20455;-83
2024/02/20 04:09:39;;;;;;;2.50;2.40;;;;;;;;;;5021391;28;21198;-84
2024/02/20 04:12:06;;;;;;;3.03;2.93;;;;;;;;;;5015789;28;20567;-85
2024/02/20 04:14:33;;;;;;;2.70;2.60;;;;;;;;;;5021404;28;20458;-82
2024/02/20 04:16:59;;;;;;;2.90;2.80;;;;;;;;;;5024006;28;20550;-82
2024/02/20 04:19:25;;;;;;;2.90;2.80;;;;;;;;;;5025243;28;20552;-83
2024/02/20 04:21:52;;;;;;;2.90;2.80;;;;;;;;;;5026672;28;20994;-84
2024/02/20 04:24:18;;;;;;;2.90;2.80;;;;;;;;;;5020106;28;20494;-85
2024/02/20 04:26:46;;;;;;;3.00;2.90;;;;;;;;;;5020963;28;20537;-84
2024/02/20 04:29:12;;;;;;;2.87;2.77;;;;;;;;;;5024372;28;20490;-84
2024/02/20 04:31:38;;;;;;;2.90;2.80;;;;;;;;;;5019902;28;20851;-84
2024/02/20 04:34:05;;;;;;;2.83;2.73;;;;;;;;;;5012817;28;20454;-83
2024/02/20 04:36:31;;;;;;;3.00;2.90;;;;;;;;;;5020810;28;20530;-84
2024/02/20 04:38:58;;;;;;;2.80;2.70;;;;;;;;;;5020572;28;20483;-83
2024/02/20 04:41:24;;;;;;;2.80;2.70;;;;;;;;;;5020904;28;20913;-85
2024/02/20 04:43:52;;;;;;;2.60;2.50;;;;;;;;;;5023184;28;20486;-85
2024/02/20 04:46:19;;;;;;;2.53;2.43;;;;;;;;;;5024635;28;20461;-85
2024/02/20 04:48:46;;;;;;;2.93;2.83;;;;;;;;;;5021981;28;20467;-84
2024/02/20 04:51:12;;;;;;;2.87;2.77;;;;;;;;;;5033155;28;20460;-85
2024/02/20 04:53:39;;;;;;;2.53;2.43;;;;;;;;;;5029786;28;20457;-85
2024/02/20 04:56:06;;;;;;;2.70;2.60;;;;;;;;;;5023457;28;20526;-84
2024/02/20 04:58:32;;;;;;;2.73;2.63;;;;;;;;;;5023882;28;20522;-85
2024/02/20 05:01:00;;;;;;;2.70;2.60;;;;;;;;;;5027417;28;20489;-84
2024/02/20 05:03:26;;;;;;;2.63;2.53;;;;;;;;;;5018446;28;20517;-85
2024/02/20 05:05:53;;;;;;;2.70;2.60;;;;;;;;;;5016375;28;20572;-85
2024/02/20 05:08:19;;;;;;;2.30;2.20;;;;;;;;;;5015852;28;20487;-82
2024/02/20 05:10:46;;;;;;;2.50;2.40;;;;;;;;;;5019862;28;20522;-84
2024/02/20 05:13:12;;;;;;;2.20;2.10;;;;;;;;;;5019504;28;20561;-84
2024/02/20 05:15:39;;;;;;;2.47;2.37;;;;;;;;;;5021409;28;20500;-85
2024/02/20 05:18:07;;;;;;;2.20;2.10;;;;;;;;;;5016613;28;20448;-85
2024/02/20 05:20:33;;;;;;;2.67;2.57;;;;;;;;;;5009449;28;20483;-84
2024/02/20 05:22:59;;;;;;;2.40;2.30;;;;;;;;;;5013372;28;20550;-84
2024/02/20 05:25:26;;;;;;;2.10;2.00;;;;;;;;;;5019366;28;21280;-83
2024/02/20 05:27:52;;;;;;;1.80;1.80;;;;;;;;;;5020782;28;20466;-82
2024/02/20 05:30:19;;;;;;;2.20;2.10;;;;;;;;;;5017520;28;20463;-83
2024/02/20 05:32:45;;;;;;;2.07;1.97;;;;;;;;;;5015811;28;20549;-81
2024/02/20 05:35:13;;;;;;;2.10;2.00;;;;;;;;;;5020496;28;20486;-83
2024/02/20 05:37:40;;;;;;;1.63;1.63;;;;;;;;;;5028428;28;20537;-82
2024/02/20 05:40:10;;;;;;;1.63;1.63;;;;;;;;;;5021077;28;20531;-81
2024/02/20 05:42:36;;;;;;;1.70;1.70;;;;;;;;;;5015450;28;20459;-82
2024/02/20 05:45:03;;;;;;;2.23;2.13;;;;;;;;;;5021610;28;20478;-82
2024/02/20 05:47:29;;;;;;;2.20;2.10;;;;;;;;;;5021290;28;20447;-81
2024/02/20 05:49:56;;;;;;;2.63;2.53;;;;;;;;;;5024994;28;20565;-82
2024/02/20 05:52:23;;;;;;;2.10;2.00;;;;;;;;;;5028369;28;20596;-83
2024/02/20 05:54:50;;;;;;;2.10;2.00;;;;;;;;;;5024185;28;20489;-83
2024/02/20 05:57:16;;;;;;;2.00;1.90;;;;;;;;;;5018295;28;20486;-82
2024/02/20 05:59:43;;;;;;;2.37;2.27;;;;;;;;;;5018669;28;20454;-81
2024/02/20 06:02:09;;;;;;;2.30;2.20;;;;;;;;;;5023527;28;20465;-82
2024/02/20 06:04:36;;;;;;;2.20;2.10;;;;;;;;;;5019392;28;20918;-82
2024/02/20 06:07:03;;;;;;;2.50;2.40;;;;;;;;;;5026918;28;20518;-86
2024/02/20 06:09:30;;;;;;;2.30;2.20;;;;;;;;;;5022961;28;20516;-82
2024/02/20 06:11:59;;;;;;;1.80;1.80;;;;;;;;;;5024199;28;20458;-83
2024/02/20 06:14:25;;;;;;;2.40;2.30;;;;;;;;;;5013883;28;20461;-82
2024/02/20 06:16:52;;;;;;;1.87;1.87;;;;;;;;;;5023240;28;20561;-82
2024/02/20 06:19:18;;;;;;;3.00;2.90;;;;;;;;;;5014729;28;20491;-81
2024/02/20 06:21:44;;;;;;;1.80;1.80;;;;;;;;;;5022730;28;20928;-82
2024/02/20 06:24:11;;;;;;;1.80;1.80;;;;;;;;;;5030580;28;20545;-82
2024/02/20 06:26:38;;;;;;;4.73;4.37;;;;;;;;;;5030981;28;20971;-81
2024/02/20 06:29:06;;;;;;;2.07;1.97;;;;;;;;;;5014783;28;20518;-81
2024/02/20 06:31:34;;;;;;;2.10;2.00;;;;;;;;;;5019585;28;20464;-81
2024/02/20 06:34:02;;;;;;;1.70;1.70;;;;;;;;;;5016289;28;20459;-80
2024/02/20 06:36:28;;;;;;;1.83;1.83;;;;;;;;;;5016892;28;20518;-81
2024/02/20 06:38:55;;;;;;;1.83;1.83;;;;;;;;;;5021375;28;20522;-81
2024/02/20 06:41:21;;;;;;;2.00;1.93;;;;;;;;;;5018394;28;20495;-81
2024/02/20 06:43:49;;;;;;;1.93;1.93;;;;;;;;;;5021947;28;20530;-81
2024/02/20 06:46:15;;;;;;;1.97;1.90;;;;;;;;;;5022331;28;20454;-81
2024/02/20 06:48:43;;;;;;;2.13;2.03;;;;;;;;;;5021648;28;20510;-80
2024/02/20 06:51:10;;;;;;;1.97;1.90;;;;;;;;;;5017557;28;21006;-80
2024/02/20 06:53:36;;;;;;;2.20;2.10;;;;;;;;;;5013255;28;20538;-80
2024/02/20 06:56:03;;;;;;;2.30;2.20;;;;;;;;;;5019593;28;20526;-80
2024/02/20 06:58:29;;;;;;;2.10;2.00;;;;;;;;;;5017018;28;20486;-80
2024/02/20 07:00:57;;;;;;;1.90;1.90;;;;;;;;;;5022294;28;20493;-80
2024/02/20 07:03:24;;;;;;;2.30;2.20;;;;;;;;;;5021400;28;20469;-80
2024/02/20 07:05:50;;;;;;;2.30;2.20;;;;;;;;;;5020675;28;20494;-80
2024/02/20 07:08:17;;;;;;;1.93;1.87;;;;;;;;;;5019438;28;20550;-79
2024/02/20 07:10:44;;;;;;;2.30;2.20;;;;;;;;;;5021439;28;20471;-81
2024/02/20 07:13:10;;;;;;;2.20;2.10;;;;;;;;;;5019603;28;20497;-80
2024/02/20 07:15:38;;;;;;;2.20;2.10;;;;;;;;;;5016154;28;20494;-81
2024/02/20 07:18:06;;;;;;;2.13;2.03;;;;;;;;;;5020746;28;20523;-81
2024/02/20 07:20:32;;;;;;;2.40;2.30;;;;;;;;;;5015721;28;20449;-80
2024/02/20 07:22:59;;;;;;;2.00;1.90;;;;;;;;;;5021887;28;20455;-84
2024/02/20 07:25:25;;;;;;;2.50;2.40;;;;;;;;;;5021685;28;20490;-83
2024/02/20 07:27:52;;;;;;;2.37;2.27;;;;;;;;;;5021665;28;20481;-83
2024/02/20 07:30:18;;;;;;;2.37;2.27;;;;;;;;;;5020870;28;20486;-83
2024/02/20 07:32:45;;;;;;;5.03;4.73;;;;;;;;;;5013611;28;21018;-82
2024/02/20 07:35:14;;;;;;;2.77;2.67;;;;;;;;;;5021528;28;20517;-82
2024/02/20 07:37:40;;;;;;;2.40;2.30;;;;;;;;;;5021561;28;20459;-83
2024/02/20 07:40:08;;;;;;;2.60;2.50;;;;;;;;;;5021169;28;20518;-83
2024/02/20 07:42:35;;;;;;;2.83;2.73;;;;;;;;;;5020395;28;20897;-82
2024/02/20 07:45:02;;;;;;;2.60;2.50;;;;;;;;;;5021340;28;20490;-78
2024/02/20 07:47:28;;;;;;;2.60;2.50;;;;;;;;;;5012515;28;20514;-78
2024/02/20 07:49:55;;;;;;;2.77;2.67;;;;;;;;;;5019019;28;20471;-78
2024/02/20 07:52:22;;;;;;;2.70;2.60;;;;;;;;;;5021461;28;20522;-77
2024/02/20 07:54:49;;;;;;;3.20;3.10;;;;;;;;;;5008994;28;20918;-77
2024/02/20 07:57:15;;;;;;;2.83;2.73;;;;;;;;;;5019476;28;20447;-77
2024/02/20 07:59:41;;;;;;;2.80;2.70;;;;;;;;;;5013943;28;20462;-77
2024/02/20 08:02:09;;;;;;;3.00;2.90;;;;;;;;;;5016150;28;21360;-77
2024/02/20 08:04:35;;;;;;;3.10;3.00;;;;;;;;;;5018344;28;20518;-78
2024/02/20 08:07:01;;;;;;;3.00;2.90;;;;;;;;;;5017767;28;20514;-77
2024/02/20 08:09:30;;;;;;;3.00;2.90;;;;;;;;;;5014649;28;20522;-77
2024/02/20 08:11:56;;;;;;;3.30;3.20;;;;;;;;;;5020540;28;20473;-77
2024/02/20 08:14:24;;;;;;;2.90;2.80;;;;;;;;;;5015454;28;20530;-77
2024/02/20 08:16:51;;;;;;;2.70;2.60;;;;;;;;;;5020225;28;21118;-77
2024/02/20 08:19:17;;;;;;;3.13;3.03;;;;;;;;;;5014302;28;20474;-77
2024/02/20 08:21:44;;;;;;;3.20;3.10;;;;;;;;;;5018849;28;20574;-77
2024/02/20 08:24:10;;;;;;;3.03;2.93;;;;;;;;;;5017540;28;20463;-77
2024/02/20 08:26:38;;;;;;;2.87;2.77;;;;;;;;;;5018439;28;20525;-77
2024/02/20 08:29:05;;;;;;;3.00;2.90;;;;;;;;;;5020093;28;20530;-77
2024/02/20 08:31:31;;;;;;;2.60;2.50;;;;;;;;;;5017320;28;20594;-77
2024/02/20 08:33:57;;;;;;;2.83;2.73;;;;;;;;;;5012774;28;20542;-77
2024/02/20 08:36:24;;;;;;;3.97;3.77;;;;;;;;;;5018506;28;20565;-78
2024/02/20 08:38:50;;;;;;;3.83;3.73;;;;;;;;;;5020164;28;20539;-78
2024/02/20 08:41:16;;;;;;;3.70;3.60;;;;;;;;;;5011241;28;20557;-78
2024/02/20 08:43:46;;;;;;;4.00;3.90;;;;;;;;;;5016611;28;20449;-78
2024/02/20 08:46:13;;;;;;;3.60;3.50;;;;;;;;;;5017160;28;20490;-78
2024/02/20 08:48:38;;;;;;;3.63;3.53;;;;;;;;;;5017047;28;20522;-78
2024/02/20 08:51:04;;;;;;;3.70;3.60;;;;;;;;;;5014593;28;20494;-78
2024/02/20 08:53:31;;;;;;;3.73;3.63;;;;;;;;;;5012248;28;20230;-77
2024/02/20 08:55:57;;;;;;;3.00;2.90;;;;;;;;;;5020123;28;20487;-78
2024/02/20 08:58:24;;;;;;;3.33;3.23;;;;;;;;;;5013789;28;20516;-78
2024/02/20 09:00:52;;;;;;;3.27;3.17;;;;;;;;;;5019921;28;20803;-77
2024/02/20 09:03:18;;;;;;;8.07;7.50;;;;;;;;;;5018369;28;20454;-77
2024/02/20 09:05:45;;;;;;;2.80;2.70;;;;;;;;;;5016142;28;20509;-78
2024/02/20 09:08:11;;;;;;;2.90;2.80;;;;;;;;;;5017393;28;20537;-78
2024/02/20 09:10:38;;;;;;;3.30;3.20;;;;;;;;;;5019505;28;20933;-77
2024/02/20 09:13:05;;;;;;;3.03;2.93;;;;;;;;;;5019410;28;20473;-77
2024/02/20 09:15:34;;;;;;;2.83;2.73;;;;;;;;;;5018875;28;20455;-78
2024/02/20 09:18:03;;;;;;;3.00;2.90;;;;;;;;;;5016225;28;20455;-78
2024/02/20 09:20:29;;;;;;;3.23;3.13;;;;;;;;;;5014677;28;20512;-77
2024/02/20 09:22:56;;;;;;;3.20;3.10;;;;;;;;;;5013950;28;20952;-78
2024/02/20 09:25:23;;;;;;;2.90;2.80;;;;;;;;;;5018313;28;20549;-77
2024/02/20 09:27:49;;;;;;;4.13;4.03;;;;;;;;;;5019689;28;20481;-78
2024/02/20 09:30:16;;;;;;;2.70;2.60;;;;;;;;;;5016651;28;20458;-77
2024/02/20 09:32:43;;;;;;;3.17;3.07;;;;;;;;;;5014482;28;20902;-77
2024/02/20 09:35:11;;;;;;;3.10;3.00;;;;;;;;;;5007324;28;20541;-78
2024/02/20 09:37:37;;;;;;;3.00;2.90;;;;;;;;;;5013715;28;20487;-78
2024/02/20 09:40:04;;;;;;;3.50;3.40;;;;;;;;;;5015816;28;20533;-77
2024/02/20 09:42:31;;;;;;;2.67;2.57;;;;;;;;;;5019064;28;20455;-77
2024/02/20 09:44:57;;;;;;;2.90;2.80;;;;;;;;;;5018683;28;20486;-78
2024/02/20 09:47:24;;;;;;;2.97;2.87;;;;;;;;;;5007296;28;20503;-77
2024/02/20 09:49:52;;;;;;;3.77;3.67;;;;;;;;;;5018088;28;21160;-77
2024/02/20 09:52:21;;;;;;;4.03;3.93;;;;;;;;;;5019926;28;20485;-77
2024/02/20 09:54:47;;;;;;;4.00;3.90;;;;;;;;;;5016927;28;20558;-77
2024/02/20 09:57:14;;;;;;;3.50;3.40;;;;;;;;;;5015114;28;20482;-77
2024/02/20 09:59:40;;;;;;;3.97;3.87;;;;;;;;;;5018631;28;20549;-77
2024/02/20 10:02:09;;;;;;;15.07;5.87;;;;;;;;;;5018036;28;20549;-77
2024/02/20 10:04:35;;;;;;;3.73;3.63;;;;;;;;;;5018439;28;20534;-78
2024/02/20 10:07:03;;;;;;;3.90;3.80;;;;;;;;;;5010219;28;20530;-78
2024/02/20 10:09:32;;;;;;;4.33;4.23;;;;;;;;;;5016939;28;20539;-78
2024/02/20 10:11:58;;;;;;;4.33;4.23;;;;;;;;;;5012200;28;20501;-77
2024/02/20 10:14:28;;;;;;;4.07;3.97;;;;;;;;;;5011734;28;20442;-78
2024/02/20 10:16:58;;;;;;;3.70;3.60;;;;;;;;;;5010395;28;20513;-77
2024/02/20 10:19:25;;;;;;;4.30;4.20;;;;;;;;;;5005857;28;21137;-77
2024/02/20 10:21:51;;;;;;;3.80;3.70;;;;;;;;;;5016073;28;20486;-77
2024/02/20 10:24:18;;;;;;;3.80;3.70;;;;;;;;;;5016456;28;20518;-78
2024/02/20 10:26:46;;;;;;;4.17;4.07;;;;;;;;;;5011575;28;20565;-78
2024/02/20 10:29:13;;;;;;;4.20;4.10;;;;;;;;;;5018090;28;20455;-78
2024/02/20 10:31:40;;;;;;;4.33;4.23;;;;;;;;;;5020764;28;20469;-77
2024/02/20 10:34:06;;;;;;;3.77;3.67;;;;;;;;;;5019384;28;20489;-77
2024/02/20 10:36:33;;;;;;;4.47;4.27;;;;;;;;;;5022508;28;20534;-78
2024/02/20 10:39:05;;;;;;;3.70;3.60;;;;;;;;;;5021529;28;20553;-78
2024/02/20 10:41:32;;;;;;;6.33;5.93;;;;;;;;;;5019350;28;20459;-77
2024/02/20 10:44:00;;;;;;;4.00;3.90;;;;;;;;;;5022490;28;20458;-78
2024/02/20 10:46:27;;;;;;;4.30;4.20;;;;;;;;;;5010476;28;20525;-78
2024/02/20 10:48:55;;;;;;;4.07;3.97;;;;;;;;;;5021374;28;20514;-77
2024/02/20 10:51:26;;;;;;;4.37;4.27;;;;;;;;;;5020462;28;21034;-77
2024/02/20 10:53:52;;;;;;;3.77;3.67;;;;;;;;;;5021573;28;20950;-78
2024/02/20 10:56:19;;;;;;;4.00;3.90;;;;;;;;;;5019341;28;20478;-77
2024/02/20 10:58:46;;;;;;;3.80;3.70;;;;;;;;;;5016358;28;20577;-78
2024/02/20 11:01:14;;;;;;;4.00;3.90;;;;;;;;;;5021655;28;20482;-77
2024/02/20 11:03:41;;;;;;;4.40;4.27;;;;;;;;;;5019372;28;20441;-77
2024/02/20 11:06:07;;;;;;;3.90;3.80;;;;;;;;;;5017871;28;20510;-78
2024/02/20 11:08:34;;;;;;;4.20;4.10;;;;;;;;;;5021480;28;20545;-78
2024/02/20 11:11:13;;;;;;;3.80;3.70;;;;;;;;;;5021885;28;20498;-78
2024/02/20 11:13:39;;;;;;;3.20;3.10;;;;;;;;;;5019038;28;20448;-77
2024/02/20 11:16:10;;;;;;;7.60;7.30;;;;;;;;;;5022349;28;20487;-78
2024/02/20 11:18:37;;;;;;;3.10;3.00;;;;;;;;;;5015416;28;20452;-77
2024/02/20 11:21:05;;;;;;;4.53;4.37;;;;;;;;;;5022091;28;20557;-78
2024/02/20 11:23:32;;;;;;;3.03;2.93;;;;;;;;;;5021942;28;20478;-77
2024/02/20 11:26:05;;;;;;;7.00;6.40;;;;;;;;;;5021095;28;20478;-78
2024/02/20 11:28:33;;;;;;;3.90;3.80;;;;;;;;;;5015426;28;20516;-78
2024/02/20 11:31:01;;;;;;;4.10;4.00;;;;;;;;;;5018949;28;21159;-78
2024/02/20 11:33:30;;;;;;;4.27;4.17;;;;;;;;;;5022129;28;20490;-78
2024/02/20 11:35:58;;;;;;;7.90;7.43;;;;;;;;;;5019899;28;20460;-78
2024/02/20 11:38:26;;;;;;;4.20;4.10;;;;;;;;;;5021249;28;20534;-78
2024/02/20 11:40:53;;;;;;;4.60;4.50;;;;;;;;;;5019591;28;20482;-78
2024/02/20 11:43:21;;;;;;;6.30;6.10;;;;;;;;;;5020261;28;21061;-78
2024/02/20 11:45:50;;;;;;;4.77;4.57;;;;;;;;;;5014407;28;20569;-78
2024/02/20 11:48:17;;;;;;;4.23;4.13;;;;;;;;;;5021564;28;20455;-77
2024/02/20 11:50:44;;;;;;;4.73;4.60;;;;;;;;;;5021441;28;20462;-78
2024/02/20 11:53:12;;;;;;;4.33;4.23;;;;;;;;;;5021270;28;20458;-78
2024/02/20 11:55:40;;;;;;;4.53;4.43;;;;;;;;;;5020924;28;20462;-78
2024/02/20 11:58:07;;;;;;;6.20;6.00;;;;;;;;;;5020757;28;20530;-78
2024/02/20 12:00:34;;;;;;;4.20;4.10;;;;;;;;;;5012605;28;20459;-78
2024/02/20 12:03:02;;;;;;;4.87;4.67;;;;;;;;;;5018776;28;20522;-78
2024/02/20 12:05:29;;;;;;;4.10;4.00;;;;;;;;;;5021338;28;20458;-78
2024/02/20 12:07:56;;;;;;;4.60;4.40;;;;;;;;;;5020904;28;20980;-77
2024/02/20 12:10:25;;;;;;;3.87;3.77;;;;;;;;;;5020472;28;21121;-78
2024/02/20 12:12:52;;;;;;;3.90;3.80;;;;;;;;;;5019974;28;20460;-78
2024/02/20 12:15:18;;;;;;;4.13;4.03;;;;;;;;;;5018348;28;20454;-77
2024/02/20 12:17:46;;;;;;;2.90;2.80;;;;;;;;;;5012909;28;20495;-78
2024/02/20 12:20:13;;;;;;;3.90;3.80;;;;;;;;;;5009387;28;20655;-78
2024/02/20 12:22:39;;;;;;;3.23;3.13;;;;;;;;;;5020540;28;20483;-78
2024/02/20 12:25:07;;;;;;;3.70;3.60;;;;;;;;;;5019179;28;20555;-78
2024/02/20 12:27:35;;;;;;;3.60;3.50;;;;;;;;;;5014086;28;20837;-78
2024/02/20 12:30:02;;;;;;;4.00;3.90;;;;;;;;;;5013929;28;20526;-78
2024/02/20 12:32:28;;;;;;;3.47;3.37;;;;;;;;;;5009214;28;20492;-78
2024/02/20 12:34:54;;;;;;;3.60;3.50;;;;;;;;;;5012646;28;20542;-78
2024/02/20 12:37:21;;;;;;;3.43;3.33;;;;;;;;;;5020545;28;20455;-77
2024/02/20 12:39:48;;;;;;;3.43;3.33;;;;;;;;;;5015770;28;20467;-78
2024/02/20 12:42:14;;;;;;;3.10;3.00;;;;;;;;;;5008000;28;20514;-78
2024/02/20 12:44:42;;;;;;;3.70;3.60;;;;;;;;;;5017959;28;20490;-78
2024/02/20 12:47:10;;;;;;;5.23;5.03;;;;;;;;;;5010055;28;20999;-78
2024/02/20 12:49:37;;;;;;;5.13;4.93;;;;;;;;;;5019786;28;20461;-78
2024/02/20 12:52:03;;;;;;;4.40;4.30;;;;;;;;;;5019525;28;20478;-78
2024/02/20 12:54:30;;;;;;;4.23;4.13;;;;;;;;;;5016405;28;20895;-78
2024/02/20 12:56:58;;;;;;;6.13;5.13;;;;;;;;;;5018535;28;20518;-78
2024/02/20 12:59:25;;;;;;;4.10;4.00;;;;;;;;;;5017000;28;20476;-78
2024/02/20 13:01:52;;;;;;;3.60;3.50;;;;;;;;;;5019770;28;20481;-78
2024/02/20 13:04:19;;;;;;;4.13;4.03;;;;;;;;;;5018265;28;20489;-78
2024/02/20 13:06:45;;;;;;;3.87;3.77;;;;;;;;;;5019516;28;20873;-78
2024/02/20 13:09:12;;;;;;;3.70;3.60;;;;;;;;;;5019644;28;20451;-78
2024/02/20 13:11:38;;;;;;;3.30;3.20;;;;;;;;;;5019729;28;20578;-78
2024/02/20 13:14:05;;;;;;;3.43;3.33;;;;;;;;;;5017652;28;20987;-78
2024/02/20 13:16:31;;;;;;;3.43;3.33;;;;;;;;;;5018753;28;20489;-78
2024/02/20 13:18:59;;;;;;;3.23;3.13;;;;;;;;;;5007605;28;20848;-77
2024/02/20 13:21:25;;;;;;;3.90;3.80;;;;;;;;;;5014913;28;20519;-77
2024/02/20 13:23:52;;;;;;;4.23;4.13;;;;;;;;;;5019302;28;20475;-78
2024/02/20 13:26:19;;;;;;;3.70;3.60;;;;;;;;;;5019896;28;20521;-78
2024/02/20 13:28:45;;;;;;;4.30;4.20;;;;;;;;;;5020053;28;20465;-78
2024/02/20 13:31:12;;;;;;;4.40;4.30;;;;;;;;;;5018381;28;20490;-78
2024/02/20 13:33:38;;;;;;;6.67;6.13;;;;;;;;;;5012831;28;20462;-78
2024/02/20 13:36:07;;;;;;;4.80;4.60;;;;;;;;;;5015189;28;20461;-78
2024/02/20 13:38:39;;;;;;;18.87;6.33;;;;;;;;;;5010553;28;20451;-78
2024/02/20 13:41:06;;;;;;;5.30;5.10;;;;;;;;;;5019286;28;20465;-78
2024/02/20 13:43:32;;;;;;;5.10;4.90;;;;;;;;;;5019414;28;20514;-78
2024/02/20 13:46:00;;;;;;;4.90;4.70;;;;;;;;;;5019301;28;20477;-78
2024/02/20 13:48:26;;;;;;;4.90;4.70;;;;;;;;;;5014446;28;20503;-78
2024/02/20 13:50:53;;;;;;;3.97;3.87;;;;;;;;;;5017429;28;20503;-78
2024/02/20 13:53:21;;;;;;;4.03;3.93;;;;;;;;;;5017247;28;20518;-78
2024/02/20 13:55:49;;;;;;;4.00;3.90;;;;;;;;;;5019278;28;20478;-77
2024/02/20 13:58:15;;;;;;;3.80;3.70;;;;;;;;;;5019526;28;20451;-78
2024/02/20 14:00:42;;;;;;;5.20;5.00;;;;;;;;;;5016127;28;20485;-78
2024/02/20 14:03:09;;;;;;;3.93;3.83;;;;;;;;;;5017304;28;20467;-78
2024/02/20 14:05:35;;;;;;;3.90;3.80;;;;;;;;;;5017354;28;20518;-77
2024/02/20 14:08:02;;;;;;;4.47;4.37;;;;;;;;;;5015992;28;20525;-78
2024/02/20 14:10:30;;;;;;;3.70;3.60;;;;;;;;;;5022664;28;20530;-78
2024/02/20 14:12:57;;;;;;;4.10;4.00;;;;;;;;;;5023570;28;20466;-78
2024/02/20 14:15:23;;;;;;;3.53;3.43;;;;;;;;;;5033304;28;20465;-78
2024/02/20 14:17:52;;;;;;;3.20;3.10;;;;;;;;;;5022674;28;20561;-79
2024/02/20 14:20:19;;;;;;;3.03;2.93;;;;;;;;;;5026907;28;20489;-78
2024/02/20 14:22:45;;;;;;;3.97;3.87;;;;;;;;;;5020530;28;20478;-78
2024/02/20 14:25:14;;;;;;;4.30;4.20;;;;;;;;;;5022211;28;20534;-78
2024/02/20 14:27:41;;;;;;;4.67;4.53;;;;;;;;;;5013790;28;20486;-78
2024/02/20 14:30:08;;;;;;;5.37;5.17;;;;;;;;;;5021033;28;20531;-79
2024/02/20 14:32:35;;;;;;;5.50;5.30;;;;;;;;;;5023430;28;20479;-79
2024/02/20 14:35:01;;;;;;;5.63;5.43;;;;;;;;;;5023256;28;20513;-79
2024/02/20 14:37:28;;;;;;;6.00;5.80;;;;;;;;;;5020752;28;20545;-79
2024/02/20 14:39:55;;;;;;;5.50;5.30;;;;;;;;;;5025700;28;20549;-79
2024/02/20 14:42:22;;;;;;;6.50;6.30;;;;;;;;;;5019559;28;21047;-79